Time;durP1;ratioP1;P1;durP2;ratioP2;P2;SDS_P1;SDS_P2;PMS_P1;PMS_P2;Temp;Humidity;BMP_temperature;BMP_pressure;BME280_temperature;BME280_humidity;BME280_pressure;Samples;Min_cycle;Max_cycle;Signal;HPM_P1;HPM_P2
2021/03/04 00:01:06;;;;;;;23.80;13.68;;;;;;;;;;5022928;28;20402;-69
2021/03/04 00:03:32;;;;;;;26.42;17.73;;;;;;;;;;5034740;28;20041;-69
2021/03/04 00:05:58;;;;;;;30.10;15.75;;;;;;;;;;5030324;28;20049;-69
2021/03/04 00:08:24;;;;;;;27.38;15.60;;;;;;;;;;5029550;28;20069;-69
2021/03/04 00:10:50;;;;;;;22.80;14.38;;;;;;;;;;5032232;28;20133;-69
2021/03/04 00:13:16;;;;;;;23.45;13.10;;;;;;;;;;5033255;28;20045;-69
2021/03/04 00:15:42;;;;;;;20.50;12.90;;;;;;;;;;5029230;28;20709;-69
2021/03/04 00:18:08;;;;;;;20.40;11.68;;;;;;;;;;5028408;28;20072;-69
2021/03/04 00:20:35;;;;;;;22.67;13.85;;;;;;;;;;5029219;28;20477;-69
2021/03/04 00:23:01;;;;;;;23.58;12.38;;;;;;;;;;5032150;28;20041;-69
2021/03/04 00:25:29;;;;;;;27.55;13.18;;;;;;;;;;5032165;28;20478;-69
2021/03/04 00:27:55;;;;;;;23.15;12.20;;;;;;;;;;5028727;28;20544;-69
2021/03/04 00:30:22;;;;;;;19.70;11.93;;;;;;;;;;5032751;28;20092;-69
2021/03/04 00:32:49;;;;;;;21.70;12.45;;;;;;;;;;5032177;28;20049;-69
2021/03/04 00:35:15;;;;;;;22.80;14.43;;;;;;;;;;5030438;28;20060;-69
2021/03/04 00:37:41;;;;;;;23.13;12.00;;;;;;;;;;5032394;28;20041;-69
2021/03/04 00:40:08;;;;;;;24.55;13.52;;;;;;;;;;5030516;28;20486;-69
2021/03/04 00:42:34;;;;;;;29.80;15.32;;;;;;;;;;5032887;28;20044;-69
2021/03/04 00:45:00;;;;;;;26.52;14.82;;;;;;;;;;5027614;28;20041;-69
2021/03/04 00:47:26;;;;;;;21.73;12.20;;;;;;;;;;5031404;28;20060;-69
2021/03/04 00:49:53;;;;;;;21.40;12.65;;;;;;;;;;5031146;28;20121;-69
2021/03/04 00:52:19;;;;;;;22.42;13.52;;;;;;;;;;5036148;28;20057;-69
2021/03/04 00:54:45;;;;;;;22.38;12.63;;;;;;;;;;5034790;28;20060;-69
2021/03/04 00:57:11;;;;;;;20.42;11.40;;;;;;;;;;5040036;28;20049;-69
2021/03/04 00:59:37;;;;;;;21.75;11.77;;;;;;;;;;5042581;28;20486;-69
2021/03/04 01:02:03;;;;;;;22.38;12.00;;;;;;;;;;5026763;28;20053;-69
2021/03/04 01:04:29;;;;;;;19.50;11.60;;;;;;;;;;5039840;28;20057;-69
2021/03/04 01:06:56;;;;;;;18.70;10.38;;;;;;;;;;5035008;28;20053;-70
2021/03/04 01:09:22;;;;;;;22.98;11.77;;;;;;;;;;5050379;28;20045;-69
2021/03/04 01:11:48;;;;;;;21.17;11.18;;;;;;;;;;5032221;28;20084;-69
2021/03/04 01:14:14;;;;;;;19.67;11.38;;;;;;;;;;5044062;28;20438;-69
2021/03/04 01:16:40;;;;;;;23.08;13.68;;;;;;;;;;5023198;28;20042;-69
2021/03/04 01:19:06;;;;;;;20.17;10.90;;;;;;;;;;5018621;28;20745;-69
2021/03/04 01:21:32;;;;;;;23.85;12.88;;;;;;;;;;5013367;28;20054;-69
2021/03/04 01:23:59;;;;;;;21.27;12.40;;;;;;;;;;5029895;28;20104;-69
2021/03/04 01:26:25;;;;;;;24.35;12.82;;;;;;;;;;5023211;28;20054;-69
2021/03/04 01:28:51;;;;;;;19.75;12.13;;;;;;;;;;5020442;28;20089;-69
2021/03/04 01:31:17;;;;;;;24.23;13.20;;;;;;;;;;5032683;28;20048;-69
2021/03/04 01:33:43;;;;;;;21.30;11.75;;;;;;;;;;5038707;28;20042;-69
2021/03/04 01:36:10;;;;;;;20.00;12.30;;;;;;;;;;5025735;28;20053;-69
2021/03/04 01:38:36;;;;;;;18.95;11.02;;;;;;;;;;5019296;28;20046;-69
2021/03/04 01:41:03;;;;;;;22.00;13.50;;;;;;;;;;5020609;28;20057;-69
2021/03/04 01:43:29;;;;;;;22.55;11.88;;;;;;;;;;5036849;28;20079;-69
2021/03/04 01:45:55;;;;;;;19.35;12.02;;;;;;;;;;5028721;28;20053;-69
2021/03/04 01:48:21;;;;;;;22.83;12.98;;;;;;;;;;5015755;28;20045;-69
2021/03/04 01:50:47;;;;;;;21.42;13.55;;;;;;;;;;5020327;28;20414;-69
2021/03/04 01:53:13;;;;;;;26.67;13.77;;;;;;;;;;5015183;28;20045;-69
2021/03/04 01:55:39;;;;;;;22.42;12.45;;;;;;;;;;5015910;28;20142;-69
2021/03/04 01:58:06;;;;;;;25.02;12.88;;;;;;;;;;5040825;28;20090;-69
2021/03/04 02:03:35;;;;;;;20.20;11.68;;;;;;;;;;5022928;28;20059;-70
2021/03/04 02:06:01;;;;;;;22.77;11.93;;;;;;;;;;5030337;28;20045;-70
2021/03/04 02:08:31;;;;;;;28.38;12.88;;;;;;;;;;5034836;28;20416;-70
2021/03/04 02:10:59;;;;;;;21.80;12.82;;;;;;;;;;5032275;28;20496;-70
2021/03/04 02:13:30;;;;;;;23.15;13.00;;;;;;;;;;5035477;28;20095;-71
2021/03/04 02:16:02;;;;;;;23.23;12.15;;;;;;;;;;5022177;28;20056;-70
2021/03/04 02:18:29;;;;;;;24.15;12.85;;;;;;;;;;5035090;28;20106;-70
2021/03/04 02:21:13;;;;;;;23.63;12.63;;;;;;;;;;5034356;28;20098;-70
2021/03/04 02:24:06;;;;;;;25.55;13.10;;;;;;;;;;5032465;28;20103;-70
2021/03/04 02:26:45;;;;;;;23.23;12.63;;;;;;;;;;5017163;28;20045;-70
2021/03/04 02:29:12;;;;;;;25.90;14.07;;;;;;;;;;5016507;28;20061;-70
2021/03/04 02:31:40;;;;;;;30.13;15.38;;;;;;;;;;5030562;28;20049;-70
2021/03/04 02:34:09;;;;;;;35.80;17.10;;;;;;;;;;5033785;28;20049;-70
2021/03/04 02:36:37;;;;;;;32.03;15.48;;;;;;;;;;5022111;28;20112;-70
2021/03/04 02:39:04;;;;;;;26.67;14.75;;;;;;;;;;5030000;28;20049;-71
2021/03/04 02:41:32;;;;;;;23.15;12.82;;;;;;;;;;5025839;28;20512;-70
2021/03/04 02:44:02;;;;;;;20.20;10.95;;;;;;;;;;5034075;28;20041;-70
2021/03/04 02:46:28;;;;;;;19.67;11.27;;;;;;;;;;5024442;28;20041;-70
2021/03/04 02:48:54;;;;;;;22.35;10.77;;;;;;;;;;5030059;28;20041;-70
2021/03/04 02:51:20;;;;;;;20.25;11.50;;;;;;;;;;5029595;28;20041;-70
2021/03/04 02:53:46;;;;;;;22.52;11.48;;;;;;;;;;5035591;28;20409;-71
2021/03/04 02:56:13;;;;;;;19.98;11.00;;;;;;;;;;5035415;28;20067;-70
2021/03/04 02:58:39;;;;;;;16.40;10.38;;;;;;;;;;5047827;28;20053;-70
2021/03/04 03:01:06;;;;;;;19.95;11.80;;;;;;;;;;5028887;28;20050;-70
2021/03/04 03:03:33;;;;;;;18.05;11.52;;;;;;;;;;5029531;28;20045;-70
2021/03/04 03:06:02;;;;;;;24.48;11.80;;;;;;;;;;5040881;28;20045;-70
2021/03/04 03:08:29;;;;;;;18.17;10.65;;;;;;;;;;5048890;28;20049;-70
2021/03/04 03:10:55;;;;;;;21.70;11.95;;;;;;;;;;5020783;28;20045;-70
2021/03/04 03:13:21;;;;;;;20.38;11.32;;;;;;;;;;5038015;28;20044;-70
2021/03/04 03:15:50;;;;;;;22.65;12.00;;;;;;;;;;5027271;28;20518;-70
2021/03/04 03:18:17;;;;;;;23.85;13.15;;;;;;;;;;5031805;28;20064;-70
2021/03/04 03:20:43;;;;;;;22.83;11.85;;;;;;;;;;5023233;28;20041;-70
2021/03/04 03:23:09;;;;;;;17.63;10.73;;;;;;;;;;5038408;28;20064;-70
2021/03/04 03:25:35;;;;;;;21.75;11.68;;;;;;;;;;5028539;28;20166;-70
2021/03/04 03:28:01;;;;;;;19.30;11.27;;;;;;;;;;5029546;28;20460;-72
2021/03/04 03:30:29;;;;;;;17.70;10.95;;;;;;;;;;5030894;28;20470;-72
2021/03/04 03:32:58;;;;;;;18.60;10.60;;;;;;;;;;5030761;28;20059;-71
2021/03/04 03:35:25;;;;;;;17.02;10.40;;;;;;;;;;5032536;28;20674;-72
2021/03/04 03:37:53;;;;;;;17.40;10.77;;;;;;;;;;5035375;28;20049;-70
2021/03/04 03:40:20;;;;;;;19.05;11.38;;;;;;;;;;5039673;28;20486;-70
2021/03/04 03:42:46;;;;;;;19.73;11.07;;;;;;;;;;5028423;28;20191;-70
2021/03/04 03:45:16;;;;;;;17.58;10.38;;;;;;;;;;5029588;28;20080;-70
2021/03/04 03:47:43;;;;;;;14.93;8.98;;;;;;;;;;5035558;28;20433;-69
2021/03/04 03:50:13;;;;;;;16.45;10.50;;;;;;;;;;5037231;28;20527;-70
2021/03/04 03:52:41;;;;;;;17.73;10.73;;;;;;;;;;5035217;28;20059;-70
2021/03/04 03:55:09;;;;;;;17.77;10.77;;;;;;;;;;5035260;28;20422;-70
2021/03/04 03:57:35;;;;;;;18.58;10.20;;;;;;;;;;5032985;28;20046;-70
2021/03/04 04:00:02;;;;;;;18.15;9.48;;;;;;;;;;5013779;28;20054;-70
2021/03/04 04:02:29;;;;;;;20.88;10.40;;;;;;;;;;5022893;28;20049;-70
2021/03/04 04:04:55;;;;;;;18.63;10.25;;;;;;;;;;5027947;28;20096;-70
2021/03/04 04:07:21;;;;;;;17.20;9.88;;;;;;;;;;5046510;28;20386;-70
2021/03/04 04:09:49;;;;;;;19.38;9.85;;;;;;;;;;5021500;28;20042;-70
2021/03/04 04:12:15;;;;;;;18.75;10.02;;;;;;;;;;5036452;28;20046;-70
2021/03/04 04:14:41;;;;;;;16.95;9.73;;;;;;;;;;5023038;28;20050;-70
2021/03/04 04:17:07;;;;;;;17.08;10.55;;;;;;;;;;5018757;28;20514;-70
2021/03/04 04:19:35;;;;;;;20.48;12.45;;;;;;;;;;5033133;28;20044;-70
2021/03/04 04:22:02;;;;;;;18.95;9.90;;;;;;;;;;5024344;28;20494;-70
2021/03/04 04:24:28;;;;;;;17.52;9.82;;;;;;;;;;5032833;28;20068;-70
2021/03/04 04:26:55;;;;;;;18.50;10.35;;;;;;;;;;5021389;28;20141;-70
2021/03/04 04:29:21;;;;;;;21.25;12.68;;;;;;;;;;5022822;28;20103;-70
2021/03/04 04:31:47;;;;;;;25.02;14.25;;;;;;;;;;5023624;28;20476;-70
2021/03/04 04:34:13;;;;;;;21.42;12.10;;;;;;;;;;5036946;28;20111;-70
2021/03/04 04:36:38;;;;;;;21.50;11.63;;;;;;;;;;5032681;28;20077;-70
2021/03/04 04:39:05;;;;;;;17.55;10.85;;;;;;;;;;5030347;28;20124;-70
2021/03/04 04:41:32;;;;;;;19.65;10.38;;;;;;;;;;5020518;28;20056;-70
2021/03/04 04:43:59;;;;;;;20.65;10.82;;;;;;;;;;5024928;28;20049;-70
2021/03/04 04:46:25;;;;;;;20.20;9.90;;;;;;;;;;5025912;28;20045;-70
2021/03/04 04:48:51;;;;;;;19.90;9.85;;;;;;;;;;5031023;28;20049;-70
2021/03/04 04:51:17;;;;;;;17.20;10.02;;;;;;;;;;5032292;28;20049;-70
2021/03/04 04:53:43;;;;;;;16.55;9.95;;;;;;;;;;5017512;28;20046;-70
2021/03/04 04:56:09;;;;;;;33.78;20.75;;;;;;;;;;5016476;28;20068;-70
2021/03/04 04:58:35;;;;;;;27.20;16.25;;;;;;;;;;5033819;28;20387;-71
2021/03/04 05:01:03;;;;;;;30.73;17.48;;;;;;;;;;5017010;28;20076;-70
2021/03/04 05:03:29;;;;;;;29.77;15.75;;;;;;;;;;5018953;28;20046;-70
2021/03/04 05:05:55;;;;;;;25.27;15.63;;;;;;;;;;5021889;28;20084;-70
2021/03/04 05:08:21;;;;;;;26.42;14.00;;;;;;;;;;5030747;28;20053;-70
2021/03/04 05:10:47;;;;;;;21.77;12.55;;;;;;;;;;5031848;28;20507;-70
2021/03/04 05:13:13;;;;;;;19.98;10.05;;;;;;;;;;5025048;28;20050;-70
2021/03/04 05:15:39;;;;;;;19.88;11.07;;;;;;;;;;5034288;28;20049;-70
2021/03/04 05:18:06;;;;;;;22.48;10.88;;;;;;;;;;5023942;28;20082;-70
2021/03/04 05:20:32;;;;;;;19.23;11.27;;;;;;;;;;5035897;28;20049;-70
2021/03/04 05:22:58;;;;;;;18.10;9.88;;;;;;;;;;5030248;28;20045;-70
2021/03/04 05:25:25;;;;;;;21.33;10.48;;;;;;;;;;5033912;28;20056;-70
2021/03/04 05:27:51;;;;;;;17.98;10.00;;;;;;;;;;5038879;28;20060;-70
2021/03/04 05:30:17;;;;;;;21.65;9.57;;;;;;;;;;5023785;28;20497;-70
2021/03/04 05:32:43;;;;;;;18.35;10.23;;;;;;;;;;5017051;28;20049;-70
2021/03/04 05:35:11;;;;;;;22.00;13.05;;;;;;;;;;5025124;28;20473;-70
2021/03/04 05:37:37;;;;;;;29.58;11.68;;;;;;;;;;5031082;28;20045;-70
2021/03/04 05:40:05;;;;;;;27.13;13.85;;;;;;;;;;5037227;28;20477;-70
2021/03/04 05:42:32;;;;;;;23.98;13.60;;;;;;;;;;5036939;28;20126;-70
2021/03/04 05:44:58;;;;;;;21.13;12.13;;;;;;;;;;5031483;28;20542;-70
2021/03/04 05:47:24;;;;;;;47.35;22.55;;;;;;;;;;5029196;28;20057;-70
2021/03/04 05:49:59;;;;;;;34.13;19.75;;;;;;;;;;5034789;28;20041;-70
2021/03/04 05:52:26;;;;;;;25.50;15.70;;;;;;;;;;5030616;28;20080;-70
2021/03/04 05:54:53;;;;;;;26.23;15.50;;;;;;;;;;5016156;28;20498;-70
2021/03/04 05:57:20;;;;;;;19.65;10.52;;;;;;;;;;5015691;28;20707;-70
2021/03/04 05:59:47;;;;;;;20.88;11.18;;;;;;;;;;5021548;28;20045;-70
2021/03/04 06:02:13;;;;;;;21.33;11.63;;;;;;;;;;5033379;28;20045;-70
2021/03/04 06:04:39;;;;;;;18.65;10.20;;;;;;;;;;5028367;28;20065;-70
2021/03/04 06:07:05;;;;;;;20.90;10.55;;;;;;;;;;5033899;28;20077;-70
2021/03/04 06:09:32;;;;;;;18.80;8.98;;;;;;;;;;5037894;28;20494;-70
2021/03/04 06:12:02;;;;;;;17.98;10.02;;;;;;;;;;5031971;28;20052;-70
2021/03/04 06:14:28;;;;;;;18.08;10.38;;;;;;;;;;5032957;28;20484;-70
2021/03/04 06:16:54;;;;;;;18.33;10.40;;;;;;;;;;5029125;28;20486;-70
2021/03/04 06:19:20;;;;;;;23.33;12.02;;;;;;;;;;5031091;28;20042;-70
2021/03/04 06:21:57;;;;;;;28.73;12.10;;;;;;;;;;5030818;28;20406;-70
2021/03/04 06:24:23;;;;;;;20.05;12.32;;;;;;;;;;5030887;28;20046;-70
2021/03/04 06:26:54;;;;;;;22.13;12.18;;;;;;;;;;5029531;28;20144;-71
2021/03/04 06:29:22;;;;;;;22.48;13.18;;;;;;;;;;5036096;28;20635;-70
2021/03/04 06:31:59;;;;;;;25.10;12.45;;;;;;;;;;5030715;28;20046;-70
2021/03/04 06:34:25;;;;;;;28.50;14.80;;;;;;;;;;5039878;28;20054;-70
2021/03/04 06:36:59;;;;;;;40.88;19.80;;;;;;;;;;5023550;28;20454;-70
2021/03/04 06:39:27;;;;;;;36.97;19.23;;;;;;;;;;5042323;28;20050;-70
2021/03/04 06:42:01;;;;;;;52.63;26.63;;;;;;;;;;5033941;28;20490;-69
2021/03/04 06:44:27;;;;;;;44.88;24.17;;;;;;;;;;5034197;28;20110;-69
2021/03/04 06:46:53;;;;;;;63.00;32.13;;;;;;;;;;5025964;28;20044;-69
2021/03/04 06:49:19;;;;;;;66.28;34.55;;;;;;;;;;5032750;28;20465;-69
2021/03/04 06:51:45;;;;;;;51.30;28.05;;;;;;;;;;5030965;28;20096;-69
2021/03/04 06:54:22;;;;;;;29.40;16.80;;;;;;;;;;5028846;28;20073;-69
2021/03/04 06:56:48;;;;;;;26.48;14.35;;;;;;;;;;5032396;28;20072;-70
2021/03/04 06:59:14;;;;;;;19.90;10.15;;;;;;;;;;5046363;28;20053;-70
2021/03/04 07:01:41;;;;;;;18.85;10.00;;;;;;;;;;5029011;28;20053;-70
2021/03/04 07:04:12;;;;;;;16.25;9.18;;;;;;;;;;5029542;28;20060;-70
2021/03/04 07:06:39;;;;;;;20.33;10.93;;;;;;;;;;5021765;28;20098;-70
2021/03/04 07:09:06;;;;;;;21.35;10.93;;;;;;;;;;5028572;28;20049;-70
2021/03/04 07:11:35;;;;;;;15.85;9.73;;;;;;;;;;5029620;28;20046;-71
2021/03/04 07:14:04;;;;;;;16.00;9.35;;;;;;;;;;5032568;28;20052;-71
2021/03/04 07:16:33;;;;;;;15.70;8.73;;;;;;;;;;5025423;28;20053;-71
2021/03/04 07:19:00;;;;;;;16.05;8.98;;;;;;;;;;5029028;28;20046;-71
2021/03/04 07:21:28;;;;;;;18.02;11.43;;;;;;;;;;5029515;28;20045;-71
2021/03/04 07:23:54;;;;;;;15.15;10.48;;;;;;;;;;5043089;28;20049;-71
2021/03/04 07:26:21;;;;;;;20.23;14.20;;;;;;;;;;5030692;28;20045;-71
2021/03/04 07:28:48;;;;;;;18.48;10.40;;;;;;;;;;5032357;28;20049;-71
2021/03/04 07:31:15;;;;;;;22.75;12.02;;;;;;;;;;5031794;28;20046;-71
2021/03/04 07:33:44;;;;;;;24.65;13.93;;;;;;;;;;5032980;28;20594;-69
2021/03/04 07:36:12;;;;;;;29.33;15.50;;;;;;;;;;5030692;28;20127;-71
2021/03/04 07:38:38;;;;;;;21.40;11.40;;;;;;;;;;5032524;28;20091;-69
2021/03/04 07:41:07;;;;;;;22.63;12.07;;;;;;;;;;5031801;28;20052;-71
2021/03/04 07:43:50;;;;;;;21.08;12.85;;;;;;;;;;5031726;28;20457;-71
2021/03/04 07:46:29;;;;;;;24.05;12.82;;;;;;;;;;5028898;28;20082;-71
2021/03/04 07:48:56;;;;;;;21.40;13.13;;;;;;;;;;5029762;28;20488;-71
2021/03/04 07:51:22;;;;;;;15.70;10.82;;;;;;;;;;5029559;28;20042;-71
2021/03/04 07:53:48;;;;;;;18.25;10.18;;;;;;;;;;5030088;28;20053;-71
2021/03/04 07:56:25;;;;;;;18.77;10.90;;;;;;;;;;5034462;28;20493;-71
2021/03/04 07:58:51;;;;;;;18.83;11.00;;;;;;;;;;5029998;28;20052;-71
2021/03/04 08:01:18;;;;;;;15.63;9.63;;;;;;;;;;5028428;28;20073;-71
2021/03/04 08:03:48;;;;;;;19.65;10.88;;;;;;;;;;5029915;28;20049;-70
2021/03/04 08:06:15;;;;;;;20.08;12.85;;;;;;;;;;5028472;28;20372;-71
2021/03/04 08:08:42;;;;;;;26.60;16.65;;;;;;;;;;5025125;28;20052;-71
2021/03/04 08:11:08;;;;;;;28.10;16.23;;;;;;;;;;5037224;28;20072;-70
2021/03/04 08:13:36;;;;;;;27.92;15.63;;;;;;;;;;5029563;28;20060;-71
2021/03/04 08:16:04;;;;;;;22.83;14.00;;;;;;;;;;5028385;28;20053;-70
2021/03/04 08:18:30;;;;;;;22.45;13.13;;;;;;;;;;5027608;28;20091;-71
2021/03/04 08:21:03;;;;;;;24.33;13.23;;;;;;;;;;5029590;28;20053;-68
2021/03/04 08:23:30;;;;;;;22.75;13.05;;;;;;;;;;5025060;28;20049;-70
2021/03/04 08:25:57;;;;;;;19.77;11.88;;;;;;;;;;5025700;28;20052;-71
2021/03/04 08:28:23;;;;;;;22.80;12.88;;;;;;;;;;5027916;28;20168;-71
2021/03/04 08:30:50;;;;;;;21.15;12.52;;;;;;;;;;5029199;28;20048;-70
2021/03/04 08:33:16;;;;;;;22.48;13.27;;;;;;;;;;5028860;28;20050;-71
2021/03/04 08:35:45;;;;;;;20.10;12.40;;;;;;;;;;5030555;28;20045;-71
2021/03/04 08:38:13;;;;;;;19.85;11.63;;;;;;;;;;5025742;28;20068;-71
2021/03/04 08:40:41;;;;;;;20.60;11.98;;;;;;;;;;5030744;28;20049;-73
2021/03/04 08:43:11;;;;;;;20.92;12.10;;;;;;;;;;5030221;28;20048;-71
2021/03/04 08:45:38;;;;;;;23.42;13.27;;;;;;;;;;5028186;28;20095;-73
2021/03/04 08:48:06;;;;;;;22.00;13.00;;;;;;;;;;5025340;28;20049;-71
2021/03/04 08:50:37;;;;;;;27.13;13.98;;;;;;;;;;5032175;28;20846;-73
2021/03/04 08:53:09;;;;;;;23.33;13.57;;;;;;;;;;5031619;28;20486;-73
2021/03/04 08:55:36;;;;;;;25.65;14.05;;;;;;;;;;5029925;28;20049;-72
2021/03/04 08:58:07;;;;;;;23.77;13.15;;;;;;;;;;5030940;28;20056;-70
2021/03/04 09:00:33;;;;;;;25.13;13.80;;;;;;;;;;5031474;28;20046;-70
2021/03/04 09:03:09;;;;;;;22.98;13.93;;;;;;;;;;5028669;28;20047;-70
2021/03/04 09:05:35;;;;;;;24.15;13.38;;;;;;;;;;5028790;28;20586;-70
2021/03/04 09:08:07;;;;;;;24.67;14.93;;;;;;;;;;5030508;28;20045;-70
2021/03/04 09:10:40;;;;;;;23.73;13.55;;;;;;;;;;5029089;28;20489;-70
2021/03/04 09:13:08;;;;;;;23.90;13.25;;;;;;;;;;5039304;28;20402;-70
2021/03/04 09:15:34;;;;;;;26.52;15.43;;;;;;;;;;5050785;28;20053;-70
2021/03/04 09:18:06;;;;;;;25.35;15.07;;;;;;;;;;5040740;28;20125;-70
2021/03/04 09:20:32;;;;;;;26.20;14.43;;;;;;;;;;5031007;28;20048;-70
2021/03/04 09:22:58;;;;;;;25.73;15.43;;;;;;;;;;5030008;28;20038;-69
2021/03/04 09:25:25;;;;;;;23.33;13.93;;;;;;;;;;5030407;28;20053;-69
2021/03/04 09:27:51;;;;;;;25.02;15.48;;;;;;;;;;5031015;28;20064;-71
2021/03/04 09:30:25;;;;;;;31.70;15.82;;;;;;;;;;5030740;28;20076;-69
2021/03/04 09:32:51;;;;;;;22.77;14.88;;;;;;;;;;5028854;28;20071;-70
2021/03/04 09:35:17;;;;;;;24.02;14.10;;;;;;;;;;5031711;28;20061;-71
2021/03/04 09:37:43;;;;;;;26.42;14.85;;;;;;;;;;5027373;28;20077;-70
2021/03/04 09:40:10;;;;;;;28.42;16.23;;;;;;;;;;5019743;28;20077;-71
2021/03/04 09:42:38;;;;;;;25.65;15.50;;;;;;;;;;5020680;28;20390;-71
2021/03/04 09:45:06;;;;;;;23.83;15.05;;;;;;;;;;5031628;28;20100;-72
2021/03/04 09:47:33;;;;;;;22.95;14.15;;;;;;;;;;5031151;28;20053;-69
2021/03/04 09:50:02;;;;;;;23.67;14.50;;;;;;;;;;5036846;28;20048;-70
2021/03/04 09:52:29;;;;;;;24.42;15.00;;;;;;;;;;5027957;28;20053;-70
2021/03/04 09:55:15;;;;;;;25.80;14.23;;;;;;;;;;5025864;28;20096;-69
2021/03/04 09:57:42;;;;;;;25.33;13.98;;;;;;;;;;5030407;28;20131;-69
2021/03/04 10:00:22;;;;;;;22.60;14.43;;;;;;;;;;5040277;28;20138;-70
2021/03/04 10:02:51;;;;;;;23.35;14.05;;;;;;;;;;5032020;28;20469;-70
2021/03/04 10:05:18;;;;;;;24.60;14.02;;;;;;;;;;5034570;28;20725;-70
2021/03/04 10:07:45;;;;;;;22.73;13.00;;;;;;;;;;5030442;28;20055;-70
2021/03/04 10:10:12;;;;;;;20.23;12.55;;;;;;;;;;5028821;28;20068;-70
2021/03/04 10:12:46;;;;;;;18.90;12.80;;;;;;;;;;5035264;28;20046;-70
2021/03/04 10:15:23;;;;;;;20.90;11.70;;;;;;;;;;5035851;28;20107;-70
2021/03/04 10:17:50;;;;;;;25.63;13.70;;;;;;;;;;5030945;28;20448;-70
2021/03/04 10:20:16;;;;;;;19.85;13.38;;;;;;;;;;5035007;28;20045;-70
2021/03/04 10:22:42;;;;;;;22.20;13.45;;;;;;;;;;5037100;28;20053;-70
2021/03/04 10:25:09;;;;;;;23.77;12.80;;;;;;;;;;5034404;28;20107;-70
2021/03/04 10:27:37;;;;;;;22.73;12.77;;;;;;;;;;5033947;28;20494;-71
2021/03/04 10:30:06;;;;;;;22.58;13.77;;;;;;;;;;5033917;28;20045;-70
2021/03/04 10:32:32;;;;;;;20.45;12.55;;;;;;;;;;5034555;28;20041;-70
2021/03/04 10:34:59;;;;;;;20.23;12.38;;;;;;;;;;5031841;28;20056;-70
2021/03/04 10:37:25;;;;;;;21.80;13.52;;;;;;;;;;5029875;28;20074;-70
2021/03/04 10:39:51;;;;;;;21.10;12.98;;;;;;;;;;5034237;28;20045;-70
2021/03/04 10:42:18;;;;;;;17.83;11.88;;;;;;;;;;5038585;28;20052;-70
2021/03/04 10:44:44;;;;;;;20.98;12.93;;;;;;;;;;5036483;28;20059;-70
2021/03/04 10:47:10;;;;;;;22.27;12.10;;;;;;;;;;5033363;28;20046;-71
2021/03/04 10:49:36;;;;;;;19.17;12.98;;;;;;;;;;5029470;28;20371;-70
2021/03/04 10:52:03;;;;;;;20.70;12.38;;;;;;;;;;5032401;28;20048;-71
2021/03/04 10:54:29;;;;;;;29.85;13.40;;;;;;;;;;5032281;28;20211;-72
2021/03/04 10:56:55;;;;;;;24.52;13.15;;;;;;;;;;5034888;28;20072;-70
2021/03/04 10:59:22;;;;;;;23.80;12.68;;;;;;;;;;5032284;28;20045;-70
2021/03/04 11:01:48;;;;;;;16.33;11.32;;;;;;;;;;5031323;28;20073;-70
2021/03/04 11:04:14;;;;;;;19.58;12.05;;;;;;;;;;5033323;28;20129;-69
2021/03/04 11:06:40;;;;;;;17.58;10.73;;;;;;;;;;5029093;28;20049;-69
2021/03/04 11:09:07;;;;;;;19.38;12.02;;;;;;;;;;5029169;28;20075;-69
2021/03/04 11:11:33;;;;;;;19.67;12.13;;;;;;;;;;5025879;28;20069;-69
2021/03/04 11:13:59;;;;;;;18.73;11.63;;;;;;;;;;5032045;28;20049;-70
2021/03/04 11:16:25;;;;;;;19.52;12.20;;;;;;;;;;5033382;28;20053;-69
2021/03/04 11:18:51;;;;;;;19.88;10.98;;;;;;;;;;5033467;28;20485;-70
2021/03/04 11:21:17;;;;;;;18.33;12.02;;;;;;;;;;5033365;28;20088;-70
2021/03/04 11:23:43;;;;;;;16.85;11.57;;;;;;;;;;5033182;28;20045;-69
2021/03/04 11:26:10;;;;;;;26.58;11.98;;;;;;;;;;5032752;28;20061;-69
2021/03/04 11:28:36;;;;;;;17.50;9.50;;;;;;;;;;5033229;28;20724;-70
2021/03/04 11:31:02;;;;;;;16.90;11.93;;;;;;;;;;5024195;28;20080;-70
2021/03/04 11:33:30;;;;;;;15.63;10.13;;;;;;;;;;5032024;28;20053;-70
2021/03/04 11:35:56;;;;;;;16.77;10.18;;;;;;;;;;5036718;28;20045;-70
2021/03/04 11:38:22;;;;;;;15.07;10.02;;;;;;;;;;5030682;28;20057;-70
2021/03/04 11:40:48;;;;;;;17.30;10.70;;;;;;;;;;5032781;28;20056;-70
2021/03/04 11:43:15;;;;;;;16.77;10.30;;;;;;;;;;5033251;28;20052;-70
2021/03/04 11:45:41;;;;;;;18.40;10.50;;;;;;;;;;5033197;28;20475;-72
2021/03/04 11:48:08;;;;;;;17.27;10.10;;;;;;;;;;5032869;28;20140;-72
2021/03/04 11:50:34;;;;;;;16.02;9.45;;;;;;;;;;5032221;28;20045;-72
2021/03/04 11:53:00;;;;;;;14.18;9.38;;;;;;;;;;5032376;28;20405;-71
2021/03/04 11:55:27;;;;;;;14.32;8.98;;;;;;;;;;5032546;28;20053;-73
2021/03/04 11:57:53;;;;;;;17.15;9.50;;;;;;;;;;5038493;28;20107;-71
2021/03/04 12:00:20;;;;;;;13.25;8.98;;;;;;;;;;5037554;28;20045;-71
2021/03/04 12:02:46;;;;;;;15.55;8.80;;;;;;;;;;5031996;28;20106;-71
2021/03/04 12:05:14;;;;;;;18.88;9.88;;;;;;;;;;5032440;28;20046;-71
2021/03/04 12:07:40;;;;;;;18.73;9.52;;;;;;;;;;5030098;28;20053;-68
2021/03/04 12:10:07;;;;;;;17.23;9.27;;;;;;;;;;5032559;28;20095;-71
2021/03/04 12:12:33;;;;;;;14.63;9.20;;;;;;;;;;5022354;28;20382;-70
2021/03/04 12:14:59;;;;;;;16.25;9.18;;;;;;;;;;5035792;28;20103;-70
2021/03/04 12:17:26;;;;;;;16.05;8.48;;;;;;;;;;5051055;28;20049;-70
2021/03/04 12:19:52;;;;;;;13.70;9.18;;;;;;;;;;5052158;28;20049;-70
2021/03/04 12:22:18;;;;;;;17.20;8.85;;;;;;;;;;5012652;28;20518;-69
2021/03/04 12:24:44;;;;;;;16.45;9.07;;;;;;;;;;5012389;28;20056;-69
2021/03/04 12:27:10;;;;;;;14.88;8.90;;;;;;;;;;5013543;28;20100;-69
2021/03/04 12:29:36;;;;;;;12.02;8.82;;;;;;;;;;5016939;28;20046;-70
2021/03/04 12:32:03;;;;;;;18.20;9.95;;;;;;;;;;5012534;28;20096;-73
2021/03/04 12:34:30;;;;;;;14.23;8.35;;;;;;;;;;5012925;28;20483;-70
2021/03/04 12:36:56;;;;;;;13.52;8.48;;;;;;;;;;5030457;28;20052;-69
2021/03/04 12:39:22;;;;;;;17.30;8.88;;;;;;;;;;5031483;28;20512;-69
2021/03/04 12:41:48;;;;;;;13.02;7.05;;;;;;;;;;5031366;28;20128;-69
2021/03/04 12:44:15;;;;;;;10.80;6.88;;;;;;;;;;5031474;28;20136;-69
2021/03/04 12:46:41;;;;;;;11.18;6.93;;;;;;;;;;5030675;28;20057;-69
2021/03/04 12:49:07;;;;;;;13.05;6.60;;;;;;;;;;5047350;28;20109;-69
2021/03/04 12:51:35;;;;;;;10.98;6.90;;;;;;;;;;5034437;28;20477;-69
2021/03/04 12:54:01;;;;;;;11.23;7.80;;;;;;;;;;5031743;28;20445;-69
2021/03/04 12:56:27;;;;;;;15.40;7.50;;;;;;;;;;5031651;28;20095;-70
2021/03/04 12:58:53;;;;;;;15.82;7.65;;;;;;;;;;5013894;28;20049;-70
2021/03/04 13:01:19;;;;;;;15.07;8.95;;;;;;;;;;5021798;28;20049;-69
2021/03/04 13:03:45;;;;;;;10.85;7.43;;;;;;;;;;5031699;28;20048;-69
2021/03/04 13:06:11;;;;;;;16.33;8.63;;;;;;;;;;5031391;28;20041;-68
2021/03/04 13:08:38;;;;;;;13.95;8.40;;;;;;;;;;5031418;28;20398;-69
2021/03/04 13:11:04;;;;;;;14.77;8.52;;;;;;;;;;5031385;28;20136;-69
2021/03/04 13:13:30;;;;;;;12.55;8.10;;;;;;;;;;5021608;28;20057;-70
2021/03/04 13:15:56;;;;;;;13.95;8.32;;;;;;;;;;5034246;28;20509;-69
2021/03/04 13:18:22;;;;;;;14.43;8.38;;;;;;;;;;5049716;28;20136;-71
2021/03/04 13:20:48;;;;;;;12.27;7.65;;;;;;;;;;5042195;28;20049;-71
2021/03/04 13:23:14;;;;;;;17.88;8.63;;;;;;;;;;5031485;28;20053;-70
2021/03/04 13:25:41;;;;;;;14.85;8.70;;;;;;;;;;5031272;28;20049;-70
2021/03/04 13:28:06;;;;;;;14.50;8.60;;;;;;;;;;5018086;28;20053;-70
2021/03/04 13:30:33;;;;;;;16.02;7.97;;;;;;;;;;5011788;28;20416;-70
2021/03/04 13:32:58;;;;;;;16.55;9.23;;;;;;;;;;5013364;28;20050;-70
2021/03/04 13:35:25;;;;;;;18.58;8.77;;;;;;;;;;5015514;28;20053;-70
2021/03/04 13:37:51;;;;;;;12.60;8.02;;;;;;;;;;5015529;28;20598;-70
2021/03/04 13:40:17;;;;;;;16.58;8.52;;;;;;;;;;5021438;28;20512;-70
2021/03/04 13:42:44;;;;;;;15.75;8.85;;;;;;;;;;5035151;28;20399;-70
2021/03/04 13:45:12;;;;;;;14.02;7.90;;;;;;;;;;5034552;28;20508;-70
2021/03/04 13:47:38;;;;;;;14.27;8.25;;;;;;;;;;5052733;28;20048;-70
2021/03/04 13:50:06;;;;;;;14.77;8.77;;;;;;;;;;5053984;28;20056;-70
2021/03/04 13:52:32;;;;;;;14.23;8.90;;;;;;;;;;5053832;28;20187;-70
2021/03/04 13:54:58;;;;;;;13.43;8.45;;;;;;;;;;5054828;28;20107;-70
2021/03/04 13:57:24;;;;;;;14.63;8.52;;;;;;;;;;5046641;28;20050;-70
2021/03/04 13:59:50;;;;;;;12.75;8.55;;;;;;;;;;5044326;28;20059;-70
2021/03/04 14:02:17;;;;;;;13.07;8.73;;;;;;;;;;5034273;28;20049;-70
2021/03/04 14:04:45;;;;;;;15.27;8.77;;;;;;;;;;5017501;28;20093;-72
2021/03/04 14:07:11;;;;;;;13.07;8.30;;;;;;;;;;5020201;28;20764;-73
2021/03/04 14:09:37;;;;;;;13.48;8.55;;;;;;;;;;5022210;28;20053;-69
2021/03/04 14:12:03;;;;;;;17.02;8.90;;;;;;;;;;5030752;28;20160;-69
2021/03/04 14:14:29;;;;;;;14.57;7.80;;;;;;;;;;5018341;28;20571;-69
2021/03/04 14:16:56;;;;;;;18.55;10.00;;;;;;;;;;5029490;28;20077;-68
2021/03/04 14:19:22;;;;;;;15.13;8.77;;;;;;;;;;5032887;28;20045;-68
2021/03/04 14:21:48;;;;;;;14.30;9.20;;;;;;;;;;5033347;28;20047;-69
2021/03/04 14:24:14;;;;;;;16.45;9.32;;;;;;;;;;5030105;28;20128;-68